Time;durP1;ratioP1;P1;durP2;ratioP2;P2;SDS_P1;SDS_P2;PMS_P1;PMS_P2;Temp;Humidity;BMP_temperature;BMP_pressure;BME280_temperature;BME280_humidity;BME280_pressure;Samples;Min_cycle;Max_cycle;Signal;HPM_P1;HPM_P2
2022/10/16 00:01:10;;;;;;;1.03;0.87;;;15.10;99.90;;;;;;5108494;28;20641;-87
2022/10/16 00:03:38;;;;;;;1.30;0.80;;;15.00;99.90;;;;;;5108751;28;20615;-88
2022/10/16 00:06:07;;;;;;;0.77;0.73;;;15.00;99.90;;;;;;5107636;28;20714;-88
2022/10/16 00:08:34;;;;;;;0.70;0.70;;;15.00;99.90;;;;;;5108410;28;20652;-86
2022/10/16 00:11:03;;;;;;;1.37;1.07;;;15.00;99.90;;;;;;5108909;28;20668;-85
2022/10/16 00:13:30;;;;;;;0.67;0.67;;;15.00;99.90;;;;;;5108875;28;20611;-86
2022/10/16 00:15:59;;;;;;;1.40;1.30;;;15.00;99.90;;;;;;5107935;28;20628;-87
2022/10/16 00:18:26;;;;;;;0.80;0.80;;;14.90;99.90;;;;;;5107392;28;20973;-86
2022/10/16 00:20:53;;;;;;;0.70;0.70;;;15.00;99.90;;;;;;5108593;28;20644;-86
2022/10/16 00:23:23;;;;;;;0.60;0.50;;;14.90;99.90;;;;;;5108202;28;21185;-88
2022/10/16 00:25:56;;;;;;;0.87;0.87;;;14.80;99.90;;;;;;5108231;28;20627;-86
2022/10/16 00:28:24;;;;;;;0.97;0.97;;;14.90;99.90;;;;;;5108235;28;21110;-86
2022/10/16 00:30:51;;;;;;;1.20;1.00;;;;;;;;;;5107411;28;20647;-86
2022/10/16 00:33:18;;;;;;;2.00;1.80;;;;;;;;;;5108183;28;20612;-85
2022/10/16 00:35:45;;;;;;;5.13;1.30;;;;;;;;;;5108108;28;21113;-86
2022/10/16 00:38:13;;;;;;;1.30;1.17;;;;;;;;;;5104252;28;20754;-86
2022/10/16 00:40:41;;;;;;;1.10;1.00;;;14.90;99.90;;;;;;5108183;28;20646;-86
2022/10/16 00:43:14;;;;;;;0.50;0.50;;;14.90;99.90;;;;;;5108409;28;20631;-86
2022/10/16 00:45:41;;;;;;;1.00;0.90;;;14.80;99.90;;;;;;5107670;28;20619;-86
2022/10/16 00:48:14;;;;;;;0.77;0.77;;;14.80;99.90;;;;;;5107314;28;20968;-88
2022/10/16 00:50:43;;;;;;;0.90;0.73;;;14.80;99.90;;;;;;5108539;28;20612;-86
2022/10/16 00:53:12;;;;;;;0.90;0.80;;;14.80;99.90;;;;;;5107955;28;20615;-86
2022/10/16 00:55:39;;;;;;;0.97;0.83;;;14.70;99.90;;;;;;5108326;28;20639;-86
2022/10/16 00:58:07;;;;;;;0.43;0.43;;;14.80;99.90;;;;;;5106840;28;20656;-86
2022/10/16 01:00:34;;;;;;;0.70;0.70;;;14.80;99.90;;;;;;5107785;28;20627;-86
2022/10/16 01:03:02;;;;;;;0.93;0.63;;;14.60;99.90;;;;;;5107174;28;20615;-85
2022/10/16 01:05:39;;;;;;;6.13;1.20;;;14.60;99.90;;;;;;5107426;28;21043;-86
2022/10/16 01:08:13;;;;;;;0.80;0.73;;;14.60;99.90;;;;;;5106248;28;20672;-87
2022/10/16 01:10:45;;;;;;;0.63;0.57;;;14.60;99.90;;;;;;5107396;28;20630;-86
2022/10/16 01:13:22;;;;;;;0.60;0.60;;;14.60;99.90;;;;;;5107578;28;20615;-85
2022/10/16 01:15:55;;;;;;;1.37;1.20;;;14.50;99.90;;;;;;5107970;28;20626;-86
2022/10/16 01:18:26;;;;;;;0.67;0.60;;;15.60;99.90;;;;;;5107413;28;20647;-86
2022/10/16 01:21:00;;;;;;;1.50;1.20;;;14.60;99.90;;;;;;5106978;28;20676;-85
2022/10/16 01:23:42;;;;;;;1.17;0.60;;;14.60;99.90;;;;;;5107514;28;20647;-85
2022/10/16 01:26:19;;;;;;;0.80;0.80;;;14.70;99.90;;;;;;5108396;28;20660;-86
2022/10/16 01:28:54;;;;;;;0.47;0.47;;;14.70;99.90;;;;;;5106835;28;20944;-86
2022/10/16 01:31:26;;;;;;;1.00;0.90;;;14.70;99.90;;;;;;5107046;28;20608;-86
2022/10/16 01:34:00;;;;;;;0.77;0.77;;;14.70;99.90;;;;;;5107193;28;20672;-86
2022/10/16 01:36:32;;;;;;;2.57;0.90;;;14.80;99.90;;;;;;5107501;28;20616;-86
2022/10/16 01:39:03;;;;;;;1.37;1.27;;;14.60;99.90;;;;;;5103680;28;20699;-86
2022/10/16 01:41:34;;;;;;;0.60;0.60;;;14.70;99.90;;;;;;5108897;28;20703;-89
2022/10/16 01:44:06;;;;;;;0.80;0.80;;;14.70;99.90;;;;;;5110887;28;20633;-85
2022/10/16 01:46:36;;;;;;;0.93;0.80;;;14.70;99.90;;;;;;5112248;27;21001;-86
2022/10/16 01:49:04;;;;;;;1.00;0.73;;;14.70;99.90;;;;;;5110969;28;20630;-86
2022/10/16 01:51:33;;;;;;;0.80;0.80;;;14.70;99.90;;;;;;5111090;28;21244;-86
2022/10/16 01:54:02;;;;;;;0.53;0.50;;;14.70;99.90;;;;;;5111020;28;20611;-86
2022/10/16 01:56:31;;;;;;;0.70;0.67;;;14.70;99.90;;;;;;5111132;28;21159;-85
2022/10/16 01:59:02;;;;;;;0.50;0.50;;;12.90;99.90;;;;;;5109839;28;21181;-86
2022/10/16 02:01:33;;;;;;;0.70;0.70;;;14.70;99.90;;;;;;5111120;28;20607;-86
2022/10/16 02:04:18;;;;;;;0.60;0.60;;;14.70;99.90;;;;;;5111313;28;20608;-86
2022/10/16 02:06:45;;;;;;;0.87;0.87;;;;;;;;;;5109896;28;20615;-88
2022/10/16 02:09:15;;;;;;;0.70;0.70;;;;;;;;;;5110805;28;20639;-86
2022/10/16 02:11:42;;;;;;;6.63;1.00;;;14.80;99.90;;;;;;5111099;28;20710;-86
2022/10/16 02:14:09;;;;;;;0.63;0.53;;;;;;;;;;5110617;28;20639;-88
2022/10/16 02:16:40;;;;;;;0.70;0.70;;;14.90;99.90;;;;;;5110768;28;20677;-88
2022/10/16 02:19:07;;;;;;;0.40;0.30;;;15.00;99.90;;;;;;5110481;28;20974;-87
2022/10/16 02:21:41;;;;;;;0.80;0.80;;;14.90;99.90;;;;;;5110528;28;20610;-87
2022/10/16 02:24:15;;;;;;;0.80;0.73;;;14.90;99.90;;;;;;5110772;28;20612;-88
2022/10/16 02:26:49;;;;;;;0.53;0.53;;;14.90;99.90;;;;;;5110334;28;21180;-88
2022/10/16 02:29:20;;;;;;;1.00;0.90;;;14.90;99.90;;;;;;5111024;28;20638;-88
2022/10/16 02:31:51;;;;;;;1.40;1.00;;;14.80;99.90;;;;;;5109882;28;20616;-88
2022/10/16 02:34:21;;;;;;;1.90;0.97;;;15.70;99.90;;;;;;5110338;28;21458;-88
2022/10/16 02:36:51;;;;;;;1.13;1.07;;;14.80;99.90;;;;;;5109113;28;21185;-88
2022/10/16 02:39:19;;;;;;;0.90;0.90;;;14.90;99.90;;;;;;5108992;28;20654;-88
2022/10/16 02:41:47;;;;;;;1.37;0.90;;;14.90;99.90;;;;;;5110290;28;20603;-88
2022/10/16 02:44:14;;;;;;;0.83;0.80;;;14.90;99.90;;;;;;5109354;28;20596;-88
2022/10/16 02:46:41;;;;;;;0.87;0.70;;;14.80;99.90;;;;;;5109704;28;20619;-88
2022/10/16 02:49:09;;;;;;;1.03;1.03;;;14.80;99.90;;;;;;5109793;28;20634;-88
2022/10/16 02:51:37;;;;;;;0.80;0.80;;;;;;;;;;5110376;28;20601;-88
2022/10/16 02:54:04;;;;;;;0.70;0.70;;;;;;;;;;5110423;28;20627;-87
2022/10/16 02:56:31;;;;;;;0.63;0.60;;;14.70;99.90;;;;;;5109897;28;20702;-88
2022/10/16 02:58:58;;;;;;;0.60;0.60;;;15.10;99.90;;;;;;5108570;28;21238;-88
2022/10/16 03:01:25;;;;;;;0.50;0.50;;;14.80;99.90;;;;;;5109786;28;20604;-85
2022/10/16 03:03:52;;;;;;;0.87;0.70;;;14.70;99.90;;;;;;5109762;28;20906;-86
2022/10/16 03:06:21;;;;;;;1.63;0.90;;;14.70;99.90;;;;;;5109554;28;20626;-85
2022/10/16 03:08:48;;;;;;;1.87;1.20;;;;;;;;;;5109339;28;20608;-86
2022/10/16 03:11:15;;;;;;;0.73;0.73;;;14.50;99.90;;;;;;5107565;28;20612;-86
2022/10/16 03:13:42;;;;;;;0.70;0.70;;;14.50;99.90;;;;;;5109462;28;21185;-86
2022/10/16 03:16:09;;;;;;;0.70;0.70;;;14.50;99.90;;;;;;5109770;28;20672;-86
2022/10/16 03:18:36;;;;;;;1.57;0.93;;;14.50;99.90;;;;;;5109086;28;21061;-88
2022/10/16 03:21:03;;;;;;;0.73;0.73;;;14.50;99.90;;;;;;5109518;28;20647;-86
2022/10/16 03:23:31;;;;;;;0.90;0.87;;;14.50;99.90;;;;;;5109296;28;20623;-86
2022/10/16 03:25:58;;;;;;;0.70;0.70;;;14.50;99.90;;;;;;5108912;28;20615;-86
2022/10/16 03:28:25;;;;;;;2.30;0.80;;;;;;;;;;5108490;28;20630;-88
2022/10/16 03:30:52;;;;;;;1.03;0.93;;;14.40;99.90;;;;;;5109335;28;20634;-86
2022/10/16 03:33:19;;;;;;;0.70;0.67;;;14.40;99.90;;;;;;5108760;28;20994;-85
2022/10/16 03:35:53;;;;;;;0.90;0.70;;;14.40;99.90;;;;;;5109407;28;20945;-85
2022/10/16 03:38:20;;;;;;;0.90;0.90;;;14.40;99.90;;;;;;5105391;28;21243;-86
2022/10/16 03:40:49;;;;;;;1.03;1.00;;;13.50;99.90;;;;;;5088419;28;20803;-85
2022/10/16 03:43:16;;;;;;;1.10;1.00;;;14.40;99.90;;;;;;5088358;28;20673;-86
2022/10/16 03:45:43;;;;;;;0.70;0.70;;;;;;;;;;5101850;28;20611;-85
2022/10/16 03:48:10;;;;;;;1.07;1.07;;;;;;;;;;5108016;28;20944;-86
2022/10/16 03:50:37;;;;;;;0.90;0.70;;;;;;;;;;5108760;28;20608;-86
2022/10/16 03:53:04;;;;;;;1.00;0.90;;;14.40;99.90;;;;;;5108067;28;21290;-85
2022/10/16 03:55:31;;;;;;;0.50;0.50;;;14.50;99.90;;;;;;5108472;28;21214;-85
2022/10/16 03:57:59;;;;;;;0.73;0.70;;;14.50;99.90;;;;;;5107766;28;20762;-86
2022/10/16 04:00:26;;;;;;;0.90;0.90;;;14.50;99.90;;;;;;5108309;28;20653;-85
2022/10/16 04:02:53;;;;;;;0.70;0.70;;;;;;;;;;5108532;28;20660;-86
2022/10/16 04:05:21;;;;;;;1.13;0.97;;;;;;;;;;5108088;28;21102;-85
2022/10/16 04:07:48;;;;;;;0.70;0.63;;;;;;;;;;5108389;28;20724;-85
2022/10/16 04:10:15;;;;;;;0.93;0.70;;;14.50;99.90;;;;;;5108684;28;20620;-86
2022/10/16 04:12:42;;;;;;;0.97;0.80;;;;;;;;;;5108487;28;20663;-86
2022/10/16 04:15:11;;;;;;;1.03;0.80;;;14.50;99.90;;;;;;5108403;28;20684;-85
2022/10/16 04:17:38;;;;;;;1.53;1.03;;;;;;;;;;5107846;28;20608;-86
2022/10/16 04:20:06;;;;;;;0.63;0.63;;;14.50;99.90;;;;;;5108039;28;20650;-85
2022/10/16 04:22:33;;;;;;;0.83;0.83;;;14.50;99.90;;;;;;5108377;28;20680;-86
2022/10/16 04:25:00;;;;;;;1.10;1.00;;;14.50;99.90;;;;;;5108353;28;20651;-86
2022/10/16 04:27:28;;;;;;;1.10;0.90;;;14.50;99.90;;;;;;5107684;28;20624;-86
2022/10/16 04:29:55;;;;;;;0.67;0.60;;;15.00;99.90;;;;;;5108054;28;21181;-86
2022/10/16 04:32:23;;;;;;;0.57;0.47;;;14.50;99.90;;;;;;5108097;28;20627;-86
2022/10/16 04:34:50;;;;;;;1.83;1.50;;;;;;;;;;5107918;28;20684;-86
2022/10/16 04:37:17;;;;;;;0.63;0.57;;;14.50;99.90;;;;;;5105032;28;20640;-87
2022/10/16 04:39:44;;;;;;;0.90;0.70;;;14.50;99.90;;;;;;5107695;28;20662;-86
2022/10/16 04:42:12;;;;;;;1.13;0.80;;;;;;;;;;5107985;28;20607;-88
2022/10/16 04:44:38;;;;;;;0.47;0.47;;;14.50;99.90;;;;;;5107893;28;20643;-85
2022/10/16 04:47:06;;;;;;;2.80;0.90;;;14.50;99.90;;;;;;5107669;28;20600;-86
2022/10/16 04:49:34;;;;;;;0.73;0.73;;;14.50;99.90;;;;;;5107977;28;20615;-86
2022/10/16 04:52:01;;;;;;;0.80;0.80;;;14.50;99.90;;;;;;5108346;28;20616;-86
2022/10/16 04:54:28;;;;;;;0.60;0.60;;;14.90;99.90;;;;;;5108155;28;21021;-86
2022/10/16 04:56:55;;;;;;;0.90;0.70;;;14.50;99.90;;;;;;5108011;28;20616;-85
2022/10/16 04:59:22;;;;;;;1.33;1.00;;;;;;;;;;5107177;28;21063;-86
2022/10/16 05:01:49;;;;;;;0.70;0.70;;;;;;;;;;5107644;28;20615;-86
2022/10/16 05:04:17;;;;;;;0.67;0.67;;;;;;;;;;5109099;28;20612;-86
2022/10/16 05:06:45;;;;;;;1.80;1.70;;;14.40;99.90;;;;;;5107784;28;20623;-85
2022/10/16 05:09:12;;;;;;;0.80;0.70;;;14.40;99.90;;;;;;5108285;28;20964;-85
2022/10/16 05:11:39;;;;;;;0.80;0.60;;;14.30;99.90;;;;;;5107699;28;20652;-86
2022/10/16 05:14:06;;;;;;;0.60;0.60;;;14.30;99.90;;;;;;5107420;28;20614;-86
2022/10/16 05:16:32;;;;;;;1.17;0.90;;;14.40;99.90;;;;;;5108860;28;20615;-85
2022/10/16 05:18:59;;;;;;;0.70;0.70;;;14.40;99.90;;;;;;5111444;28;20655;-85
2022/10/16 05:21:26;;;;;;;1.13;0.60;;;14.30;99.90;;;;;;5111717;28;20641;-86
2022/10/16 05:23:55;;;;;;;0.63;0.43;;;14.30;99.90;;;;;;5111597;28;20711;-86
2022/10/16 05:26:22;;;;;;;0.60;0.40;;;14.30;99.90;;;;;;5111891;28;20596;-86
2022/10/16 05:28:50;;;;;;;0.80;0.80;;;14.30;99.90;;;;;;5110528;28;20622;-86
2022/10/16 05:31:17;;;;;;;0.97;0.80;;;14.30;99.90;;;;;;5111421;28;20681;-86
2022/10/16 05:33:44;;;;;;;0.83;0.83;;;14.30;99.90;;;;;;5111174;28;20627;-85
2022/10/16 05:36:12;;;;;;;1.17;0.87;;;;;;;;;;5110920;28;20620;-85
2022/10/16 05:38:40;;;;;;;0.70;0.70;;;;;;;;;;5108566;28;20647;-85
2022/10/16 05:41:08;;;;;;;1.00;1.00;;;14.30;99.90;;;;;;5111391;28;20627;-85
2022/10/16 05:43:35;;;;;;;0.70;0.57;;;14.30;99.90;;;;;;5111223;28;20702;-85
2022/10/16 05:46:04;;;;;;;1.57;1.07;;;16.40;99.90;;;;;;5111087;28;20722;-86
2022/10/16 05:48:32;;;;;;;0.80;0.80;;;14.20;99.90;;;;;;5110196;28;20628;-85
2022/10/16 05:50:59;;;;;;;0.50;0.47;;;14.30;99.90;;;;;;5111331;28;20608;-85
2022/10/16 05:53:27;;;;;;;0.47;0.47;;;14.20;99.90;;;;;;5110712;28;20612;-86
2022/10/16 05:55:55;;;;;;;0.70;0.70;;;;;;;;;;5110438;28;20596;-86
2022/10/16 05:58:23;;;;;;;1.10;1.00;;;14.20;99.90;;;;;;5110808;28;20628;-85
2022/10/16 06:00:55;;;;;;;0.63;0.60;;;14.60;99.90;;;;;;5110801;28;20657;-86
2022/10/16 06:03:22;;;;;;;1.23;1.00;;;14.30;99.90;;;;;;5110679;28;20620;-86
2022/10/16 06:05:49;;;;;;;1.17;0.90;;;;;;;;;;5110795;28;20630;-86
2022/10/16 06:08:16;;;;;;;1.07;0.70;;;;;;;;;;5110139;28;20619;-86
2022/10/16 06:10:44;;;;;;;0.77;0.77;;;14.30;99.90;;;;;;5110927;28;20676;-86
2022/10/16 06:13:11;;;;;;;1.20;1.10;;;;;;;;;;5111066;28;20619;-88
2022/10/16 06:15:42;;;;;;;0.83;0.83;;;14.30;99.90;;;;;;5110989;28;20710;-86
2022/10/16 06:18:10;;;;;;;0.80;0.80;;;14.30;99.90;;;;;;5110164;28;20651;-87
2022/10/16 06:20:37;;;;;;;0.83;0.83;;;14.30;99.90;;;;;;5110595;28;20675;-86
2022/10/16 06:23:04;;;;;;;0.70;0.70;;;14.40;99.90;;;;;;5109622;28;20971;-86
2022/10/16 06:25:32;;;;;;;0.90;0.90;;;14.40;99.90;;;;;;5110681;28;20636;-86
2022/10/16 06:27:58;;;;;;;0.83;0.83;;;14.40;99.90;;;;;;5110353;28;20596;-87
2022/10/16 06:30:26;;;;;;;0.80;0.80;;;;;;;;;;5110547;28;20639;-86
2022/10/16 06:32:54;;;;;;;0.73;0.57;;;14.40;99.90;;;;;;5110092;28;20604;-86
2022/10/16 06:35:21;;;;;;;0.87;0.83;;;;;;;;;;5110494;28;20604;-85
2022/10/16 06:37:48;;;;;;;0.87;0.70;;;14.70;99.90;;;;;;5106921;28;20659;-86
2022/10/16 06:40:16;;;;;;;1.17;0.70;;;;;;;;;;5110044;28;20655;-85
2022/10/16 06:42:43;;;;;;;0.80;0.80;;;;;;;;;;5110162;28;20619;-86
2022/10/16 06:45:10;;;;;;;0.50;0.43;;;14.70;99.90;;;;;;5110079;28;20620;-86
2022/10/16 06:47:37;;;;;;;0.80;0.80;;;14.80;99.90;;;;;;5109526;28;20726;-88
2022/10/16 06:50:07;;;;;;;1.07;1.07;;;14.90;99.90;;;;;;5109441;28;20722;-86
2022/10/16 06:52:35;;;;;;;0.77;0.77;;;;;;;;;;5110050;28;20611;-86
2022/10/16 06:55:02;;;;;;;0.87;0.83;;;14.90;99.90;;;;;;5109817;28;21030;-86
2022/10/16 06:57:29;;;;;;;1.80;1.00;;;15.00;99.90;;;;;;5109710;28;20672;-87
2022/10/16 06:59:56;;;;;;;2.63;1.20;;;;;;;;;;5109160;28;20663;-85
2022/10/16 07:02:24;;;;;;;1.07;0.93;;;;;;;;;;5109474;28;20620;-85
2022/10/16 07:04:51;;;;;;;0.93;0.93;;;15.00;99.90;;;;;;5109299;28;21815;-86
2022/10/16 07:07:19;;;;;;;0.60;0.60;;;15.00;99.90;;;;;;5109327;28;20615;-86
2022/10/16 07:09:46;;;;;;;0.93;0.90;;;15.10;99.90;;;;;;5109855;27;20616;-85
2022/10/16 07:12:13;;;;;;;0.67;0.67;;;15.10;99.90;;;;;;5109791;28;20812;-86
2022/10/16 07:14:40;;;;;;;0.97;0.97;;;15.10;99.90;;;;;;5109648;27;21166;-85
2022/10/16 07:17:07;;;;;;;0.67;0.67;;;15.20;99.90;;;;;;5108660;28;20676;-86
2022/10/16 07:19:33;;;;;;;1.17;1.07;;;15.20;99.90;;;;;;5109018;28;20667;-85
2022/10/16 07:22:01;;;;;;;0.53;0.50;;;;;;;;;;5109547;28;20631;-86
2022/10/16 07:24:29;;;;;;;2.20;1.30;;;15.20;99.90;;;;;;5109608;28;20610;-85
2022/10/16 07:26:56;;;;;;;2.08;1.10;;;15.20;99.90;;;;;;5108447;28;20739;-85
2022/10/16 07:29:25;;;;;;;1.20;0.77;;;15.20;99.90;;;;;;5109335;28;20205;-86
2022/10/16 07:31:51;;;;;;;0.80;0.80;;;15.20;99.90;;;;;;5108439;28;20619;-86
2022/10/16 07:34:21;;;;;;;1.00;0.90;;;15.20;99.90;;;;;;5108774;28;20628;-86
2022/10/16 07:36:50;;;;;;;0.80;0.80;;;15.30;99.90;;;;;;5108103;28;20653;-86
2022/10/16 07:39:17;;;;;;;0.93;0.93;;;15.60;99.90;;;;;;5106976;28;20651;-86
2022/10/16 07:41:45;;;;;;;0.90;0.90;;;15.30;99.90;;;;;;5109158;28;20604;-86
2022/10/16 07:44:12;;;;;;;1.03;0.93;;;;;;;;;;5108306;28;20644;-86
2022/10/16 07:46:42;;;;;;;1.00;1.00;;;;;;;;;;5108833;28;20607;-86
2022/10/16 07:49:10;;;;;;;0.80;0.80;;;;;;;;;;5108643;28;20622;-86
2022/10/16 07:51:38;;;;;;;0.80;0.80;;;15.30;99.90;;;;;;5108628;28;20634;-86
2022/10/16 07:54:05;;;;;;;1.47;1.37;;;;;;;;;;5109134;28;20630;-86
2022/10/16 07:56:33;;;;;;;1.77;1.30;;;15.50;99.90;;;;;;5108538;28;20622;-86
2022/10/16 07:59:01;;;;;;;1.10;1.00;;;15.50;99.90;;;;;;5107238;28;20651;-87
2022/10/16 08:01:28;;;;;;;0.80;0.80;;;15.60;99.90;;;;;;5108537;28;20623;-85
2022/10/16 08:03:56;;;;;;;0.80;0.80;;;;;;;;;;5109079;28;20608;-85
2022/10/16 08:06:23;;;;;;;1.13;0.80;;;15.60;99.90;;;;;;5108446;28;20604;-86
2022/10/16 08:08:50;;;;;;;1.20;1.10;;;;;;;;;;5108231;28;20596;-86
2022/10/16 08:11:18;;;;;;;1.40;1.00;;;15.60;99.90;;;;;;5108058;28;20600;-86
2022/10/16 08:13:45;;;;;;;1.63;1.53;;;;;;;;;;5108445;28;20987;-85
2022/10/16 08:16:13;;;;;;;1.00;0.87;;;15.80;99.90;;;;;;5114542;27;21181;-86
2022/10/16 08:18:41;;;;;;;1.50;0.63;;;15.90;99.90;;;;;;5107842;28;20616;-86
2022/10/16 08:21:13;;;;;;;0.70;0.70;;;15.80;99.90;;;;;;5108259;28;20674;-85
2022/10/16 08:23:40;;;;;;;1.23;0.80;;;;;;;;;;5108388;28;20979;-87
2022/10/16 08:26:09;;;;;;;3.37;1.00;;;16.10;99.90;;;;;;5108262;28;20602;-85
2022/10/16 08:28:36;;;;;;;1.17;1.02;;;16.10;99.90;;;;;;5108128;28;20732;-86
2022/10/16 08:31:08;;;;;;;1.30;0.57;;;16.20;99.90;;;;;;5108645;28;20201;-88
2022/10/16 08:33:37;;;;;;;1.07;1.00;;;16.30;99.90;;;;;;5109739;28;21259;-85
2022/10/16 08:36:06;;;;;;;1.13;1.00;;;16.20;99.90;;;;;;5108525;28;20608;-85
2022/10/16 08:38:33;;;;;;;0.97;0.97;;;16.30;99.90;;;;;;5104733;28;20692;-86
2022/10/16 08:41:24;;;;;;;1.30;0.93;;;16.30;99.90;;;;;;5108130;28;20673;-85
2022/10/16 08:44:20;;;;;;;0.77;0.77;;;16.30;99.90;;;;;;5106222;28;20607;-86
2022/10/16 08:46:54;;;;;;;1.30;1.00;;;16.40;99.90;;;;;;5084324;28;20697;-87
2022/10/16 08:49:24;;;;;;;0.97;0.87;;;16.40;99.90;;;;;;5098613;28;21145;-88
2022/10/16 08:51:51;;;;;;;1.67;1.37;;;16.50;99.90;;;;;;5110040;28;20607;-88
2022/10/16 08:54:29;;;;;;;1.23;0.93;;;16.50;99.90;;;;;;5109790;28;20639;-88
2022/10/16 08:56:57;;;;;;;0.80;0.80;;;16.50;99.90;;;;;;5110074;28;20643;-87
2022/10/16 08:59:24;;;;;;;2.03;1.53;;;16.50;99.90;;;;;;5109644;28;21164;-87
2022/10/16 09:01:52;;;;;;;0.77;0.77;;;16.50;99.90;;;;;;5111096;28;20615;-88
2022/10/16 09:04:47;;;;;;;2.20;1.20;;;16.60;99.90;;;;;;5112127;28;20624;-85
2022/10/16 09:07:21;;;;;;;0.90;0.90;;;16.60;99.90;;;;;;5112325;28;20638;-85
2022/10/16 09:10:01;;;;;;;1.13;0.90;;;16.80;99.90;;;;;;5112239;28;21200;-86
2022/10/16 09:12:36;;;;;;;1.27;0.87;;;16.80;99.90;;;;;;5112397;28;20642;-86
2022/10/16 09:15:15;;;;;;;0.70;0.70;;;17.00;99.90;;;;;;5112106;28;20730;-85
2022/10/16 09:17:53;;;;;;;0.80;0.80;;;17.00;99.90;;;;;;5112496;28;20618;-85
2022/10/16 09:20:42;;;;;;;1.50;0.90;;;17.40;99.90;;;;;;5111583;28;20663;-85
2022/10/16 09:23:16;;;;;;;0.80;0.80;;;17.40;99.90;;;;;;5112025;28;20610;-85
2022/10/16 09:25:47;;;;;;;1.10;1.00;;;17.50;99.90;;;;;;5112375;28;20612;-85
2022/10/16 09:28:14;;;;;;;0.80;0.80;;;;;;;;;;5111354;28;20668;-85
2022/10/16 09:30:42;;;;;;;0.90;0.90;;;;;;;;;;5111156;28;20618;-85
2022/10/16 09:33:11;;;;;;;0.83;0.83;;;17.70;99.90;;;;;;5111724;28;20635;-86
2022/10/16 09:35:41;;;;;;;0.80;0.80;;;17.90;99.90;;;;;;5111556;28;20611;-85
2022/10/16 09:38:09;;;;;;;1.20;0.90;;;17.90;99.90;;;;;;5108834;28;20623;-85
2022/10/16 09:40:39;;;;;;;0.77;0.70;;;18.10;99.90;;;;;;5111260;28;20754;-85
2022/10/16 09:43:21;;;;;;;1.33;0.77;;;18.00;99.90;;;;;;5111074;28;20611;-85
2022/10/16 09:45:56;;;;;;;0.90;0.90;;;18.10;99.90;;;;;;5110798;28;20619;-85
2022/10/16 09:48:23;;;;;;;3.10;1.20;;;18.20;99.90;;;;;;5111189;28;20622;-84
2022/10/16 09:50:59;;;;;;;0.77;0.77;;;18.40;99.90;;;;;;5111167;28;20620;-86
2022/10/16 09:53:39;;;;;;;0.90;0.90;;;18.40;99.90;;;;;;5110874;28;21039;-85
2022/10/16 09:56:06;;;;;;;0.50;0.50;;;18.40;99.90;;;;;;5111662;28;20613;-85
2022/10/16 09:58:34;;;;;;;0.70;0.70;;;;;;;;;;5111125;28;20863;-85
2022/10/16 10:01:02;;;;;;;0.70;0.70;;;;;;;;;;5111257;28;20746;-85
2022/10/16 10:03:38;;;;;;;0.50;0.50;;;18.70;99.90;;;;;;5110122;28;21219;-85
2022/10/16 10:06:22;;;;;;;0.80;0.80;;;18.70;99.90;;;;;;5110759;28;20615;-86
2022/10/16 10:09:17;;;;;;;1.33;0.90;;;18.80;99.90;;;;;;5110977;28;20618;-85
2022/10/16 10:11:53;;;;;;;0.67;0.60;;;18.90;99.90;;;;;;5109022;28;20723;-84
2022/10/16 10:14:24;;;;;;;0.63;0.63;;;18.90;99.90;;;;;;5110780;28;20599;-85
2022/10/16 10:16:52;;;;;;;1.47;0.97;;;18.90;99.90;;;;;;5110686;28;20623;-85
2022/10/16 10:19:20;;;;;;;0.70;0.70;;;18.90;99.90;;;;;;5111275;28;20607;-85
2022/10/16 10:21:49;;;;;;;0.60;0.60;;;18.90;99.90;;;;;;5110703;28;21256;-84
2022/10/16 10:24:18;;;;;;;0.60;0.60;;;19.00;99.90;;;;;;5111508;28;20607;-84
2022/10/16 10:26:52;;;;;;;0.83;0.80;;;19.00;99.90;;;;;;5109713;28;21207;-84
2022/10/16 10:29:43;;;;;;;2.60;0.93;;;19.10;99.90;;;;;;5111009;28;20649;-85
2022/10/16 10:32:21;;;;;;;0.70;0.70;;;19.10;99.90;;;;;;5110167;28;20934;-85
2022/10/16 10:35:02;;;;;;;0.60;0.60;;;19.20;99.90;;;;;;5110593;28;20639;-85
2022/10/16 10:37:51;;;;;;;0.80;0.80;;;19.30;99.90;;;;;;5107233;28;20631;-85
2022/10/16 10:40:35;;;;;;;0.53;0.53;;;19.40;99.90;;;;;;5110537;28;20674;-84
2022/10/16 10:43:11;;;;;;;1.57;1.30;;;19.40;99.90;;;;;;5110256;28;20619;-84
2022/10/16 10:45:43;;;;;;;1.13;1.03;;;19.50;99.90;;;;;;5110329;28;20626;-84
2022/10/16 10:48:24;;;;;;;0.80;0.80;;;19.40;99.90;;;;;;5109618;28;20623;-85
2022/10/16 10:50:57;;;;;;;0.70;0.60;;;19.60;99.90;;;;;;5110084;28;21084;-85
2022/10/16 10:53:37;;;;;;;1.00;0.97;;;19.80;99.90;;;;;;5109051;28;20727;-84
2022/10/16 10:56:15;;;;;;;0.83;0.83;;;19.80;99.90;;;;;;5108647;28;20624;-85
2022/10/16 10:59:10;;;;;;;0.53;0.53;;;19.80;99.90;;;;;;5108994;28;21088;-85
2022/10/16 11:01:48;;;;;;;0.80;0.70;;;19.90;99.90;;;;;;5109203;28;20671;-85
2022/10/16 11:04:36;;;;;;;0.70;0.70;;;20.00;99.40;;;;;;5109588;28;20724;-86
2022/10/16 11:07:06;;;;;;;0.97;0.97;;;20.00;99.70;;;;;;5109422;28;20622;-85
2022/10/16 11:09:41;;;;;;;1.40;1.03;;;19.90;99.90;;;;;;5109975;28;20620;-85
2022/10/16 11:12:14;;;;;;;0.83;0.83;;;20.00;99.90;;;;;;5109645;28;20634;-85
2022/10/16 11:14:47;;;;;;;1.13;1.03;;;19.10;99.90;;;;;;5108067;28;21165;-85
2022/10/16 11:17:18;;;;;;;0.70;0.70;;;20.10;99.90;;;;;;5109554;28;20623;-85
2022/10/16 11:19:50;;;;;;;0.73;0.63;;;20.10;99.90;;;;;;5109924;28;20627;-84
2022/10/16 11:22:23;;;;;;;0.73;0.70;;;19.70;99.20;;;;;;5109554;28;20667;-84
2022/10/16 11:24:58;;;;;;;1.37;0.80;;;20.10;99.00;;;;;;5109743;28;20619;-84
2022/10/16 11:27:34;;;;;;;1.17;0.80;;;20.20;99.80;;;;;;5109003;28;20619;-84
2022/10/16 11:30:06;;;;;;;1.47;1.10;;;20.20;99.40;;;;;;5109692;28;20626;-84
2022/10/16 11:32:37;;;;;;;1.07;0.80;;;20.20;99.90;;;;;;5109944;28;20616;-85
2022/10/16 11:35:16;;;;;;;0.70;0.70;;;20.20;99.10;;;;;;5128793;27;20635;-84
2022/10/16 11:37:47;;;;;;;0.80;0.80;;;20.30;99.10;;;;;;5117662;27;20642;-85
2022/10/16 11:40:25;;;;;;;1.20;0.80;;;20.20;99.90;;;;;;5109129;28;21185;-85
2022/10/16 11:43:00;;;;;;;0.80;0.80;;;20.20;99.90;;;;;;5109299;28;20941;-84
2022/10/16 11:45:34;;;;;;;0.70;0.70;;;20.20;99.90;;;;;;5108716;28;20638;-84
2022/10/16 11:48:07;;;;;;;1.50;1.00;;;20.20;99.90;;;;;;5106848;28;20619;-84
2022/10/16 11:50:40;;;;;;;0.70;0.53;;;20.30;99.40;;;;;;5108095;28;20642;-85
2022/10/16 11:53:15;;;;;;;1.40;1.40;;;20.30;99.90;;;;;;5108215;28;21008;-84
2022/10/16 11:55:45;;;;;;;0.60;0.60;;;20.30;98.70;;;;;;5107636;28;20642;-85
2022/10/16 11:58:21;;;;;;;1.20;1.00;;;20.30;99.10;;;;;;5107688;28;20672;-85
2022/10/16 12:00:57;;;;;;;0.77;0.77;;;20.40;99.60;;;;;;5108035;28;20826;-84
2022/10/16 12:03:29;;;;;;;0.80;0.80;;;20.40;98.90;;;;;;5108530;28;20974;-85
2022/10/16 12:06:14;;;;;;;1.23;1.13;;;20.20;99.00;;;;;;5108620;28;20624;-85
2022/10/16 12:08:44;;;;;;;1.80;0.80;;;20.60;98.90;;;;;;5108524;28;20650;-84
2022/10/16 12:11:24;;;;;;;0.90;0.80;;;20.70;97.30;;;;;;5108436;28;20619;-85
2022/10/16 12:13:52;;;;;;;0.90;0.90;;;;;;;;;;5108437;28;20611;-84
2022/10/16 12:16:24;;;;;;;0.90;0.90;;;20.70;97.80;;;;;;5108597;28;20627;-84
2022/10/16 12:19:10;;;;;;;0.90;0.90;;;20.70;97.30;;;;;;5107929;28;20731;-84
2022/10/16 12:21:37;;;;;;;0.90;0.80;;;20.70;97.40;;;;;;5108514;28;20646;-84
2022/10/16 12:24:05;;;;;;;0.50;0.50;;;20.90;97.00;;;;;;5108621;28;20612;-84
2022/10/16 12:26:37;;;;;;;1.00;0.83;;;21.00;96.50;;;;;;5108239;28;20604;-84
2022/10/16 12:29:15;;;;;;;0.80;0.80;;;20.90;97.50;;;;;;5108126;28;20627;-83
2022/10/16 12:31:47;;;;;;;0.70;0.70;;;21.00;96.60;;;;;;5108230;28;21093;-85
2022/10/16 12:34:28;;;;;;;1.27;1.00;;;20.90;96.90;;;;;;5107853;28;20627;-85
2022/10/16 12:36:56;;;;;;;0.90;0.90;;;21.10;97.40;;;;;;5104411;28;20624;-84
2022/10/16 12:39:25;;;;;;;0.97;0.83;;;21.00;97.60;;;;;;5107436;28;21185;-84
2022/10/16 12:42:04;;;;;;;0.90;0.90;;;21.10;97.50;;;;;;5107926;28;20665;-85
2022/10/16 12:44:35;;;;;;;1.00;0.90;;;21.10;98.10;;;;;;5107924;28;20638;-84
2022/10/16 12:47:03;;;;;;;1.20;1.10;;;21.10;98.10;;;;;;5107527;28;20612;-85
2022/10/16 12:49:33;;;;;;;0.97;0.70;;;21.00;98.40;;;;;;5107491;28;20701;-82
2022/10/16 12:52:00;;;;;;;1.30;1.20;;;;;;;;;;5107912;28;20668;-83
2022/10/16 12:54:30;;;;;;;0.50;0.50;;;21.10;97.80;;;;;;5107204;28;21202;-82
2022/10/16 12:57:10;;;;;;;0.77;0.77;;;21.00;98.60;;;;;;5107231;28;20639;-83
2022/10/16 12:59:48;;;;;;;1.67;1.10;;;20.90;99.80;;;;;;5106950;28;20649;-83
2022/10/16 13:02:42;;;;;;;0.80;0.80;;;20.90;99.40;;;;;;5107864;28;20763;-83
2022/10/16 13:05:26;;;;;;;1.40;1.23;;;20.90;99.70;;;;;;5107447;28;21213;-83
2022/10/16 13:08:03;;;;;;;1.63;1.07;;;20.80;98.70;;;;;;5107222;28;20622;-82
2022/10/16 13:10:36;;;;;;;0.80;0.80;;;20.80;99.50;;;;;;5107580;28;20616;-84
2022/10/16 13:13:37;;;;;;;2.33;0.90;;;20.80;98.80;;;;;;5107782;28;20612;-82
2022/10/16 13:16:15;;;;;;;0.60;0.60;;;20.70;98.20;;;;;;5107738;28;20630;-83
2022/10/16 13:18:56;;;;;;;0.93;0.70;;;20.80;99.30;;;;;;5107094;28;20712;-83
2022/10/16 13:21:34;;;;;;;0.90;0.90;;;20.70;99.40;;;;;;5107872;28;21196;-83